AXM717 WMKK-WMKJ
Flight info
| Callsign | AXM717 |
|---|---|
| Flight time | 0h 25m |
| Altitude | 21000 |
| Route | RUSBU2B RUSBU Y511 TOPOR W534 EMTUV |
| Aircraft | A321/M-SDE3FGHIRWY/LB1 |
Departure
| Time | 2026-05-09 13:25 |
|---|---|
| Airport | Kuala Lumpur International Airport (WMKK) |
Arrival
| Time | 2026-05-09 13:50 |
|---|---|
| Airport | Senai International Airport (WMKJ) |
| Time | Latitude | Longitude | Altitude | Speed | Heading |
|---|---|---|---|---|---|
| 2026-05-09 12:56 | 2.73815 | 101.68539 | 42 ft | 0 kts | 146° |
| 2026-05-09 13:12 | 2.73820 | 101.68536 | 41 ft | 2 kts | 145° |
| 2026-05-09 13:12 | 2.73834 | 101.68527 | 40 ft | 2 kts | 141° |
| 2026-05-09 13:12 | 2.73846 | 101.68516 | 40 ft | 2 kts | 193° |
| 2026-05-09 13:13 | 2.73848 | 101.68512 | 40 ft | 0 kts | 255° |
| 2026-05-09 13:13 | 2.73848 | 101.68507 | 41 ft | 3 kts | 260° |
| 2026-05-09 13:13 | 2.73850 | 101.68484 | 42 ft | 3 kts | 279° |
| 2026-05-09 13:13 | 2.73851 | 101.68462 | 42 ft | 3 kts | 261° |
| 2026-05-09 13:14 | 2.73847 | 101.68446 | 39 ft | 0 kts | 243° |
| 2026-05-09 13:16 | 2.73844 | 101.68439 | 41 ft | 1 kts | 243° |
| 2026-05-09 13:16 | 2.73837 | 101.68426 | 41 ft | 3 kts | 243° |
| 2026-05-09 13:16 | 2.73827 | 101.68404 | 40 ft | 4 kts | 243° |
| 2026-05-09 13:16 | 2.73808 | 101.68379 | 42 ft | 5 kts | 233° |
| 2026-05-09 13:17 | 2.73784 | 101.68347 | 42 ft | 6 kts | 233° |
| 2026-05-09 13:17 | 2.73755 | 101.68306 | 42 ft | 9 kts | 234° |
| 2026-05-09 13:17 | 2.73718 | 101.68246 | 41 ft | 12 kts | 235° |
| 2026-05-09 13:17 | 2.73696 | 101.68161 | 40 ft | 14 kts | 281° |
| 2026-05-09 13:18 | 2.73654 | 101.68086 | 38 ft | 14 kts | 236° |
| 2026-05-09 13:18 | 2.73617 | 101.68025 | 37 ft | 0 kts | 235° |
| 2026-05-09 13:19 | 2.73606 | 101.68008 | 37 ft | 5 kts | 235° |
| 2026-05-09 13:19 | 2.73573 | 101.67975 | 36 ft | 8 kts | 217° |
| 2026-05-09 13:19 | 2.73516 | 101.67981 | 36 ft | 10 kts | 166° |
| 2026-05-09 13:19 | 2.73441 | 101.68002 | 36 ft | 13 kts | 137° |
| 2026-05-09 13:20 | 2.73423 | 101.68016 | 36 ft | 0 kts | 152° |
| 2026-05-09 13:22 | 2.73405 | 101.68027 | 36 ft | 13 kts | 147° |
| 2026-05-09 13:22 | 2.73173 | 101.68135 | 38 ft | 56 kts | 182° |
| 2026-05-09 13:22 | 2.73067 | 101.68128 | 40 ft | 35 kts | 187° |
| 2026-05-09 13:23 | 2.73115 | 101.68211 | 38 ft | 1 kts | 168° |
| 2026-05-09 13:23 | 2.73081 | 101.68239 | 38 ft | 21 kts | 141° |
| 2026-05-09 13:24 | 2.72678 | 101.68511 | 39 ft | 88 kts | 145° |
| 2026-05-09 13:24 | 2.72058 | 101.68934 | 39 ft | 128 kts | 146° |
| 2026-05-09 13:24 | 2.71229 | 101.69492 | 44 ft | 160 kts | 144° |
| 2026-05-09 13:24 | 2.70331 | 101.70065 | 635 ft | 145 kts | 145° |
| 2026-05-09 13:25 | 2.69459 | 101.70659 | 704 ft | 174 kts | 143° |
| 2026-05-09 13:25 | 2.68406 | 101.71459 | 832 ft | 190 kts | 142° |
| 2026-05-09 13:25 | 2.66532 | 101.72798 | 1642 ft | 208 kts | 147° |
| 2026-05-09 13:26 | 2.65291 | 101.73594 | 2009 ft | 224 kts | 147° |
| 2026-05-09 13:26 | 2.63939 | 101.74458 | 2367 ft | 240 kts | 147° |
| 2026-05-09 13:26 | 2.62493 | 101.75392 | 2742 ft | 256 kts | 147° |
| 2026-05-09 13:26 | 2.60967 | 101.76388 | 3260 ft | 264 kts | 146° |
| 2026-05-09 13:27 | 2.59564 | 101.77564 | 3870 ft | 266 kts | 129° |
| 2026-05-09 13:27 | 2.58407 | 101.79021 | 4433 ft | 271 kts | 128° |
| 2026-05-09 13:27 | 2.57241 | 101.80510 | 4997 ft | 275 kts | 128° |
| 2026-05-09 13:27 | 2.56070 | 101.82015 | 5573 ft | 277 kts | 128° |
| 2026-05-09 13:28 | 2.54881 | 101.83545 | 6131 ft | 280 kts | 128° |
| 2026-05-09 13:28 | 2.53687 | 101.85079 | 6646 ft | 283 kts | 128° |
| 2026-05-09 13:28 | 2.52479 | 101.86631 | 7153 ft | 286 kts | 128° |
| 2026-05-09 13:28 | 2.51261 | 101.88195 | 7662 ft | 288 kts | 128° |
| 2026-05-09 13:29 | 2.50033 | 101.89774 | 8166 ft | 290 kts | 128° |
| 2026-05-09 13:29 | 2.48810 | 101.91347 | 8484 ft | 291 kts | 128° |
| 2026-05-09 13:29 | 2.47566 | 101.92948 | 8851 ft | 294 kts | 128° |
| 2026-05-09 13:29 | 2.45865 | 101.95135 | 9386 ft | 296 kts | 128° |
| 2026-05-09 13:30 | 2.43303 | 101.98425 | 10100 ft | 299 kts | 128° |
| 2026-05-09 13:30 | 2.40704 | 102.01768 | 10370 ft | 317 kts | 127° |
| 2026-05-09 13:30 | 2.37953 | 102.05313 | 10603 ft | 333 kts | 127° |
| 2026-05-09 13:30 | 2.35048 | 102.09053 | 10836 ft | 346 kts | 127° |
| 2026-05-09 13:31 | 2.32060 | 102.12890 | 11099 ft | 355 kts | 127° |
| 2026-05-09 13:31 | 2.29033 | 102.16786 | 11529 ft | 357 kts | 127° |
| 2026-05-09 13:31 | 2.25981 | 102.20715 | 11941 ft | 358 kts | 127° |
| 2026-05-09 13:31 | 2.22933 | 102.24640 | 12316 ft | 360 kts | 127° |
| 2026-05-09 13:32 | 2.19854 | 102.28600 | 12680 ft | 361 kts | 127° |
| 2026-05-09 13:32 | 2.13672 | 102.36547 | 13312 ft | 364 kts | 127° |
| 2026-05-09 13:32 | 2.10616 | 102.40476 | 13613 ft | 366 kts | 127° |
| 2026-05-09 13:33 | 2.07504 | 102.44465 | 13868 ft | 367 kts | 127° |
| 2026-05-09 13:33 | 2.04444 | 102.48388 | 14678 ft | 347 kts | 127° |
| 2026-05-09 13:33 | 2.01725 | 102.51884 | 16277 ft | 302 kts | 127° |
| 2026-05-09 13:33 | 1.99288 | 102.55103 | 17102 ft | 289 kts | 126° |
| 2026-05-09 13:34 | 1.96877 | 102.58334 | 17435 ft | 292 kts | 126° |
| 2026-05-09 13:34 | 1.94435 | 102.61598 | 17785 ft | 294 kts | 126° |
| 2026-05-09 13:34 | 1.91907 | 102.64958 | 17280 ft | 318 kts | 126° |
| 2026-05-09 13:34 | 1.89145 | 102.68623 | 16849 ft | 338 kts | 126° |
| 2026-05-09 13:35 | 1.87229 | 102.71168 | 16872 ft | 345 kts | 126° |
| 2026-05-09 13:35 | 1.85814 | 102.73047 | 16864 ft | 349 kts | 126° |
| 2026-05-09 13:35 | 1.84341 | 102.75000 | 16856 ft | 344 kts | 126° |
| 2026-05-09 13:35 | 1.82934 | 102.76865 | 16868 ft | 338 kts | 126° |
| 2026-05-09 13:36 | 1.81538 | 102.78716 | 16867 ft | 334 kts | 126° |
| 2026-05-09 13:36 | 1.80151 | 102.80559 | 16866 ft | 329 kts | 126° |
| 2026-05-09 13:36 | 1.78783 | 102.82377 | 16746 ft | 328 kts | 126° |
| 2026-05-09 13:36 | 1.77431 | 102.84175 | 16639 ft | 328 kts | 126° |
| 2026-05-09 13:37 | 1.76078 | 102.85974 | 16510 ft | 328 kts | 126° |
| 2026-05-09 13:37 | 1.74764 | 102.87816 | 16390 ft | 327 kts | 120° |
| 2026-05-09 13:37 | 1.73818 | 102.89876 | 16067 ft | 333 kts | 107° |
| 2026-05-09 13:37 | 1.73361 | 102.92185 | 15616 ft | 343 kts | 95° |
| 2026-05-09 13:38 | 1.73148 | 102.94603 | 15127 ft | 354 kts | 95° |
| 2026-05-09 13:38 | 1.72926 | 102.97069 | 14435 ft | 359 kts | 95° |
| 2026-05-09 13:38 | 1.72695 | 102.99581 | 13615 ft | 367 kts | 95° |
| 2026-05-09 13:38 | 1.72456 | 103.02127 | 12663 ft | 374 kts | 95° |
| 2026-05-09 13:39 | 1.72206 | 103.04743 | 11686 ft | 381 kts | 95° |
| 2026-05-09 13:39 | 1.71958 | 103.07351 | 10712 ft | 387 kts | 95° |
| 2026-05-09 13:39 | 1.71715 | 103.09935 | 9760 ft | 393 kts | 95° |
| 2026-05-09 13:39 | 1.71453 | 103.12719 | 8826 ft | 393 kts | 95° |
| 2026-05-09 13:40 | 1.71204 | 103.15335 | 8080 ft | 390 kts | 95° |
| 2026-05-09 13:40 | 1.70947 | 103.18027 | 7358 ft | 386 kts | 95° |
| 2026-05-09 13:40 | 1.70699 | 103.20630 | 6685 ft | 382 kts | 95° |
| 2026-05-09 13:40 | 1.70448 | 103.23268 | 6188 ft | 374 kts | 95° |
| 2026-05-09 13:41 | 1.70214 | 103.25740 | 6018 ft | 358 kts | 95° |
| 2026-05-09 13:41 | 1.69988 | 103.28111 | 5998 ft | 340 kts | 95° |
| 2026-05-09 13:41 | 1.69922 | 103.30365 | 6010 ft | 323 kts | 83° |
| 2026-05-09 13:41 | 1.70421 | 103.32459 | 5978 ft | 310 kts | 72° |
| 2026-05-09 13:42 | 1.71066 | 103.34485 | 5849 ft | 303 kts | 72° |
| 2026-05-09 13:42 | 1.71696 | 103.36464 | 5773 ft | 296 kts | 72° |
| 2026-05-09 13:42 | 1.72301 | 103.38365 | 5658 ft | 281 kts | 72° |
| 2026-05-09 13:42 | 1.72859 | 103.40116 | 5560 ft | 257 kts | 72° |
| 2026-05-09 13:43 | 1.73374 | 103.41738 | 5465 ft | 237 kts | 72° |
| 2026-05-09 13:43 | 1.73850 | 103.43235 | 5347 ft | 225 kts | 72° |
| 2026-05-09 13:43 | 1.74311 | 103.44676 | 5175 ft | 213 kts | 72° |
| 2026-05-09 13:43 | 1.74746 | 103.46042 | 4964 ft | 203 kts | 72° |
| 2026-05-09 13:44 | 1.75140 | 103.47282 | 4702 ft | 195 kts | 72° |
| 2026-05-09 13:44 | 1.75556 | 103.48590 | 4313 ft | 194 kts | 72° |
| 2026-05-09 13:44 | 1.75944 | 103.49812 | 3948 ft | 194 kts | 72° |
| 2026-05-09 13:44 | 1.76369 | 103.51119 | 3591 ft | 192 kts | 72° |
| 2026-05-09 13:45 | 1.76778 | 103.52366 | 3244 ft | 191 kts | 71° |
| 2026-05-09 13:45 | 1.77224 | 103.53606 | 2884 ft | 190 kts | 70° |
| 2026-05-09 13:45 | 1.77674 | 103.54818 | 2672 ft | 182 kts | 70° |
| 2026-05-09 13:45 | 1.78468 | 103.56940 | 2438 ft | 169 kts | 70° |
| 2026-05-09 13:46 | 1.79169 | 103.59062 | 2213 ft | 163 kts | 83° |
| 2026-05-09 13:46 | 1.78691 | 103.61028 | 2055 ft | 155 kts | 125° |
| 2026-05-09 13:46 | 1.77942 | 103.61784 | 2008 ft | 152 kts | 146° |
| 2026-05-09 13:46 | 1.76981 | 103.62233 | 2016 ft | 153 kts | 161° |
| 2026-05-09 13:47 | 1.75978 | 103.62599 | 2012 ft | 154 kts | 161° |
| 2026-05-09 13:47 | 1.74982 | 103.62962 | 1959 ft | 154 kts | 160° |
| 2026-05-09 13:47 | 1.73989 | 103.63324 | 1809 ft | 153 kts | 161° |
| 2026-05-09 13:47 | 1.73000 | 103.63684 | 1646 ft | 153 kts | 160° |
| 2026-05-09 13:48 | 1.72004 | 103.64046 | 1453 ft | 154 kts | 160° |
| 2026-05-09 13:48 | 1.71000 | 103.64412 | 1256 ft | 155 kts | 161° |
| 2026-05-09 13:48 | 1.69995 | 103.64778 | 1057 ft | 156 kts | 160° |
| 2026-05-09 13:48 | 1.68989 | 103.65144 | 880 ft | 156 kts | 161° |
| 2026-05-09 13:49 | 1.67985 | 103.65510 | 686 ft | 156 kts | 160° |
| 2026-05-09 13:49 | 1.66969 | 103.65880 | 491 ft | 157 kts | 160° |
| 2026-05-09 13:49 | 1.65952 | 103.66250 | 321 ft | 155 kts | 160° |
| 2026-05-09 13:49 | 1.64980 | 103.66605 | 212 ft | 150 kts | 160° |
| 2026-05-09 13:50 | 1.64291 | 103.66860 | 208 ft | 39 kts | 160° |
| 2026-05-09 13:50 | 1.64139 | 103.66914 | 210 ft | 21 kts | 160° |
| 2026-05-09 13:50 | 1.64022 | 103.66960 | 212 ft | 22 kts | 159° |
| 2026-05-09 13:50 | 1.63981 | 103.66974 | 206 ft | 23 kts | 164° |
| 2026-05-09 13:51 | 1.63829 | 103.67033 | 207 ft | 25 kts | 153° |
| 2026-05-09 13:51 | 1.63730 | 103.67026 | 202 ft | 11 kts | 263° |
| 2026-05-09 13:51 | 1.63721 | 103.66971 | 212 ft | 8 kts | 253° |
| 2026-05-09 13:51 | 1.63700 | 103.66913 | 207 ft | 10 kts | 250° |
| 2026-05-09 13:52 | 1.63676 | 103.66844 | 209 ft | 11 kts | 252° |
| 2026-05-09 13:52 | 1.63670 | 103.66764 | 202 ft | 12 kts | 256° |
| 2026-05-09 13:52 | 1.63660 | 103.66737 | 200 ft | 0 kts | 248° |